CheckWX is a tool to help pilots better visualize weather data.  It is not intended as a substitute for an official pre-flight weather briefing.

21:24:38 UTC

KPRC METAR
Ernest A Love Field Airport
Prescott, Arizona, USA
Current

32 mins ago

KPRC 232053Z 18011G18KT 10SM SCT034 BKN050 OVC065 09/01 A3005 RMK AO2 SLP144 60000 T00940011 51018
Observed
May-23 @ 20:53 UTC
Wind
  • 180° at 11 KTS
  • Gusting to 18 KTS
Visibility
10 SM
Flight Rules
VFR
Cloud Levels
  • Scattered at 3,400' AGL
  • Broken at 5,000' AGL
  • Overcast at 6,500' AGL
Temperature
C / 48°F
Dewpoint
C / 34°F
Humidity
58%
Altimeter
30.05" Hg
Pressure
1017.62 hPa
Previous

2 hours ago

KPRC 231953Z 19013KT 10SM BKN034 BKN042 OVC060 09/02 A3003 RMK AO2 SLP138 T00890022
Observed
May-23 @ 19:53 UTC
Wind
  • 190° at 13 KTS
Visibility
10 SM
Flight Rules
VFR
Cloud Levels
  • Broken at 3,400' AGL
  • Broken at 4,200' AGL
  • Overcast at 6,000' AGL
Temperature
C / 48°F
Dewpoint
C / 36°F
Humidity
62%
Altimeter
30.03" Hg
Pressure
1016.92 hPa
Previous

3 hours ago

KPRC 231853Z 19010G18KT 10SM SCT010 BKN020 OVC028 08/02 A3001 RMK AO2 RAB07E17B39E47 SLP134 P0000 T00780022
Observed
May-23 @ 18:53 UTC
Wind
  • 190° at 10 KTS
  • Gusting to 18 KTS
Visibility
10 SM
Flight Rules
MVFR
Cloud Levels
  • Scattered at 1,000' AGL
  • Broken at 2,000' AGL
  • Overcast at 2,800' AGL
Temperature
C / 46°F
Dewpoint
C / 36°F
Humidity
66%
Altimeter
30.01" Hg
Pressure
1016.22 hPa
Current Rain
0.01"